createdAt,value
2018-03-14T00:00:45.883Z,6.96
2018-03-14T00:01:45.871Z,6.95
2018-03-14T00:02:45.917Z,6.92
2018-03-14T00:03:47.477Z,6.9
2018-03-14T00:04:45.894Z,6.9
2018-03-14T00:05:45.902Z,6.9
2018-03-14T00:06:45.891Z,6.91
2018-03-14T00:07:45.944Z,6.91
2018-03-14T00:08:45.946Z,6.9
2018-03-14T00:09:45.884Z,6.87
2018-03-14T00:10:45.892Z,6.9
2018-03-14T00:11:47.786Z,6.87
2018-03-14T00:12:45.893Z,6.87
2018-03-14T00:13:45.957Z,6.88
2018-03-14T00:14:46.516Z,6.84
2018-03-14T00:15:45.958Z,6.84
2018-03-14T00:16:45.938Z,6.74
2018-03-14T00:17:45.947Z,6.67
2018-03-14T00:18:45.941Z,6.73
2018-03-14T00:19:45.937Z,6.7
2018-03-14T00:20:45.933Z,6.74
2018-03-14T00:21:45.944Z,6.74
2018-03-14T00:22:45.949Z,6.73
2018-03-14T00:23:46.010Z,6.75
2018-03-14T00:24:45.936Z,6.75
2018-03-14T00:25:46.024Z,6.71
2018-03-14T00:26:46.479Z,6.74
2018-03-14T00:27:45.965Z,6.73
2018-03-14T00:28:46.556Z,6.73
2018-03-14T00:29:45.963Z,6.68
2018-03-14T00:30:46.014Z,6.64
2018-03-14T00:31:45.957Z,6.64
2018-03-14T00:32:45.972Z,6.57
2018-03-14T00:33:45.967Z,6.58
2018-03-14T00:34:47.225Z,6.58
2018-03-14T00:35:46.036Z,6.61
2018-03-14T00:36:46.052Z,6.56
2018-03-14T00:37:45.964Z,6.53
2018-03-14T00:38:46.023Z,6.51
2018-03-14T00:39:46.438Z,6.51
2018-03-14T00:40:46.036Z,6.48
2018-03-14T00:41:46.018Z,6.5
2018-03-14T00:42:47.274Z,6.5
2018-03-14T00:43:46.041Z,6.5
2018-03-14T00:44:47.235Z,6.47
2018-03-14T00:45:46.036Z,6.48
2018-03-14T00:46:46.062Z,6.5
2018-03-14T00:47:46.047Z,6.56
2018-03-14T00:48:46.057Z,6.57
2018-03-14T00:49:46.027Z,6.61
2018-03-14T00:50:48.041Z,6.6
2018-03-14T00:51:46.047Z,6.6
2018-03-14T00:52:46.026Z,6.65
2018-03-14T00:53:46.048Z,6.68
2018-03-14T00:54:46.015Z,6.7
2018-03-14T00:55:46.082Z,6.67
2018-03-14T00:56:46.056Z,6.7
2018-03-14T00:57:46.156Z,6.67
2018-03-14T00:58:47.989Z,6.63
2018-03-14T00:59:46.000Z,6.64
2018-03-14T01:00:46.044Z,6.67
2018-03-14T01:01:46.017Z,6.7
2018-03-14T01:02:46.042Z,6.63
2018-03-14T01:03:46.025Z,6.64
2018-03-14T01:04:46.023Z,6.58
2018-03-14T01:05:46.730Z,6.6
2018-03-14T01:06:46.060Z,6.63
2018-03-14T01:07:46.048Z,6.63
2018-03-14T01:08:46.034Z,6.67
2018-03-14T01:09:46.055Z,6.67
2018-03-14T01:10:46.064Z,6.7
2018-03-14T01:11:46.078Z,6.73
2018-03-14T01:12:46.079Z,6.77
2018-03-14T01:13:47.493Z,6.78
2018-03-14T01:14:46.199Z,6.78
2018-03-14T01:15:46.073Z,6.75
2018-03-14T01:16:46.081Z,6.77
2018-03-14T01:17:46.094Z,6.73
2018-03-14T01:18:46.094Z,6.71
2018-03-14T01:19:46.152Z,6.73
2018-03-14T01:20:46.108Z,6.71
2018-03-14T01:21:47.173Z,6.7
2018-03-14T01:22:46.092Z,6.67
2018-03-14T01:23:46.098Z,6.7
2018-03-14T01:24:46.159Z,6.7
2018-03-14T01:25:46.191Z,6.71
2018-03-14T01:26:46.110Z,6.6
2018-03-14T01:27:46.173Z,6.57
2018-03-14T01:28:46.198Z,6.58
2018-03-14T01:29:47.949Z,6.57
2018-03-14T01:30:46.110Z,6.56
2018-03-14T01:31:46.169Z,6.57
2018-03-14T01:32:46.164Z,6.6
2018-03-14T01:33:46.187Z,6.5
2018-03-14T01:34:46.169Z,6.5
2018-03-14T01:35:46.235Z,6.4
2018-03-14T01:36:46.389Z,6.29
2018-03-14T01:37:46.190Z,6.28
2018-03-14T01:38:46.189Z,6.26
2018-03-14T01:39:46.237Z,6.29
2018-03-14T01:40:46.192Z,6.33
2018-03-14T01:41:46.236Z,6.33
2018-03-14T01:42:46.206Z,6.4
2018-03-14T01:43:46.203Z,6.39
2018-03-14T01:44:47.051Z,6.37
2018-03-14T01:45:46.259Z,6.35
2018-03-14T01:46:46.210Z,6.39
2018-03-14T01:47:46.240Z,6.33
2018-03-14T01:48:46.256Z,6.39
2018-03-14T01:49:46.226Z,6.36
2018-03-14T01:50:46.275Z,6.35
2018-03-14T01:51:46.221Z,6.33
2018-03-14T01:52:47.259Z,6.39
2018-03-14T01:53:46.251Z,6.36
2018-03-14T01:54:46.211Z,6.39
2018-03-14T01:55:46.869Z,6.36
2018-03-14T01:56:46.232Z,6.41
2018-03-14T01:57:47.180Z,6.4
2018-03-14T01:58:46.209Z,6.46
2018-03-14T01:59:46.211Z,6.44
2018-03-14T02:00:46.322Z,6.44
2018-03-14T02:01:46.210Z,6.43
2018-03-14T02:02:46.223Z,6.46
2018-03-14T02:03:46.245Z,6.44
2018-03-14T02:04:46.251Z,6.46
2018-03-14T02:05:46.227Z,6.47
2018-03-14T02:06:46.235Z,6.46
2018-03-14T02:07:46.824Z,6.47
2018-03-14T02:08:46.254Z,6.43
2018-03-14T02:09:46.287Z,6.4
2018-03-14T02:10:46.248Z,6.41
2018-03-14T02:11:46.296Z,6.47
2018-03-14T02:12:46.246Z,6.5
2018-03-14T02:13:46.260Z,6.5
2018-03-14T02:14:46.291Z,6.54
2018-03-14T02:15:47.515Z,6.53
2018-03-14T02:16:46.249Z,6.54
2018-03-14T02:17:46.263Z,6.56
2018-03-14T02:18:46.285Z,6.54
2018-03-14T02:19:46.285Z,6.53
2018-03-14T02:20:46.307Z,6.56
2018-03-14T02:21:46.367Z,6.54
2018-03-14T02:22:46.314Z,6.5
2018-03-14T02:23:48.037Z,6.51
2018-03-14T02:24:46.287Z,6.5
2018-03-14T02:25:46.487Z,6.54
2018-03-14T02:26:46.284Z,6.53
2018-03-14T02:27:46.289Z,6.56
2018-03-14T02:28:46.298Z,6.54
2018-03-14T02:29:46.318Z,6.56
2018-03-14T02:30:46.760Z,6.56
2018-03-14T02:31:46.304Z,6.54
2018-03-14T02:32:46.313Z,6.57
2018-03-14T02:33:46.299Z,6.54
2018-03-14T02:34:46.320Z,6.57
2018-03-14T02:35:46.382Z,6.54
2018-03-14T02:36:46.350Z,6.56
2018-03-14T02:37:46.324Z,6.54
2018-03-14T02:38:47.727Z,6.56
2018-03-14T02:39:46.344Z,6.51
2018-03-14T02:40:46.354Z,6.47
2018-03-14T02:41:46.340Z,6.48
2018-03-14T02:42:46.341Z,6.47
2018-03-14T02:43:46.340Z,6.46
2018-03-14T02:44:46.311Z,6.47
2018-03-14T02:45:46.307Z,6.47
2018-03-14T02:46:46.497Z,6.46
2018-03-14T02:47:46.324Z,6.43
2018-03-14T02:48:46.329Z,6.41
2018-03-14T02:49:46.335Z,6.41
2018-03-14T02:50:46.337Z,6.4
2018-03-14T02:51:46.363Z,6.44
2018-03-14T02:52:46.359Z,6.46
2018-03-14T02:53:46.357Z,6.48
2018-03-14T02:54:46.351Z,6.51
2018-03-14T02:55:46.356Z,6.51
2018-03-14T02:56:46.372Z,6.53
2018-03-14T02:57:46.377Z,6.53
2018-03-14T02:58:46.387Z,6.56
2018-03-14T02:59:46.371Z,6.56
2018-03-14T03:00:46.386Z,6.54
2018-03-14T03:01:46.385Z,6.56
2018-03-14T03:02:46.382Z,6.57
2018-03-14T03:03:46.407Z,6.53
2018-03-14T03:04:46.387Z,6.57
2018-03-14T03:05:46.390Z,6.57
2018-03-14T03:06:46.404Z,6.54
2018-03-14T03:07:46.397Z,6.56
2018-03-14T03:08:46.424Z,6.57
2018-03-14T03:09:46.402Z,6.58
2018-03-14T03:10:46.422Z,6.6
2018-03-14T03:11:46.396Z,6.56
2018-03-14T03:12:46.483Z,6.6
2018-03-14T03:13:46.435Z,6.6
2018-03-14T03:14:46.415Z,6.6
2018-03-14T03:15:46.413Z,6.57
2018-03-14T03:16:46.415Z,6.61
2018-03-14T03:17:46.419Z,6.58
2018-03-14T03:18:46.434Z,6.6
2018-03-14T03:19:46.438Z,6.61
2018-03-14T03:20:46.440Z,6.63
2018-03-14T03:21:46.446Z,6.61
2018-03-14T03:22:46.440Z,6.61
2018-03-14T03:23:46.488Z,6.61
2018-03-14T03:24:46.438Z,6.61
2018-03-14T03:25:46.454Z,6.6
2018-03-14T03:26:46.460Z,6.63
2018-03-14T03:27:46.482Z,6.58
2018-03-14T03:28:46.502Z,6.64
2018-03-14T03:29:46.470Z,6.64
2018-03-14T03:30:46.492Z,6.64
2018-03-14T03:31:46.487Z,6.64
2018-03-14T03:32:46.490Z,6.65
2018-03-14T03:33:46.477Z,6.65
2018-03-14T03:34:46.487Z,6.64
2018-03-14T03:35:46.489Z,6.64
2018-03-14T03:36:46.489Z,6.6
2018-03-14T03:37:46.488Z,6.6
2018-03-14T03:38:46.750Z,6.63
2018-03-14T03:39:46.491Z,6.61
2018-03-14T03:40:46.498Z,6.6
2018-03-14T03:41:46.512Z,6.6
2018-03-14T03:42:46.515Z,6.61
2018-03-14T03:43:46.536Z,6.54
2018-03-14T03:44:46.518Z,6.5
2018-03-14T03:45:46.521Z,6.51
2018-03-14T03:46:46.535Z,6.47
2018-03-14T03:47:46.519Z,6.41
2018-03-14T03:48:46.525Z,6.41
2018-03-14T03:49:46.537Z,6.39
2018-03-14T03:50:46.533Z,6.41
2018-03-14T03:51:46.564Z,6.43
2018-03-14T03:52:46.544Z,6.39
2018-03-14T03:53:46.544Z,6.35
2018-03-14T03:54:46.546Z,6.36
2018-03-14T03:55:46.550Z,6.35
2018-03-14T03:56:46.565Z,6.37
2018-03-14T03:57:46.571Z,6.36
2018-03-14T03:58:46.573Z,6.35
2018-03-14T03:59:46.562Z,6.32
2018-03-14T04:00:46.576Z,6.3
2018-03-14T04:01:46.588Z,6.33
2018-03-14T04:02:46.584Z,6.33
2018-03-14T04:03:46.651Z,6.37
2018-03-14T04:04:46.638Z,6.36
2018-03-14T04:05:46.593Z,6.33
2018-03-14T04:06:46.604Z,6.36
2018-03-14T04:07:46.622Z,6.32
2018-03-14T04:08:46.602Z,6.3
2018-03-14T04:09:46.609Z,6.3
2018-03-14T04:10:46.604Z,6.3
2018-03-14T04:11:46.892Z,6.28
2018-03-14T04:12:46.612Z,6.26
2018-03-14T04:13:46.667Z,6.3
2018-03-14T04:14:46.624Z,6.29
2018-03-14T04:15:46.632Z,6.22
2018-03-14T04:16:46.677Z,6.26
2018-03-14T04:17:46.628Z,6.28
2018-03-14T04:18:46.639Z,6.28
2018-03-14T04:19:46.628Z,6.28
2018-03-14T04:20:46.648Z,6.3
2018-03-14T04:21:46.640Z,6.33
2018-03-14T04:22:46.650Z,6.35
2018-03-14T04:23:46.670Z,6.32
2018-03-14T04:24:46.687Z,6.32
2018-03-14T04:25:46.651Z,6.35
2018-03-14T04:26:46.660Z,6.37
2018-03-14T04:27:46.652Z,6.29
2018-03-14T04:28:46.665Z,6.29
2018-03-14T04:29:46.648Z,6.23
2018-03-14T04:30:46.658Z,6.26
2018-03-14T04:31:46.658Z,6.23
2018-03-14T04:32:46.660Z,6.2
2018-03-14T04:33:46.661Z,6.22
2018-03-14T04:34:46.661Z,6.19
2018-03-14T04:35:46.667Z,6.23
2018-03-14T04:36:46.666Z,6.22
2018-03-14T04:37:46.683Z,6.2
2018-03-14T04:38:46.681Z,6.18
2018-03-14T04:39:46.688Z,6.19
2018-03-14T04:40:46.682Z,6.19
2018-03-14T04:41:46.692Z,6.2
2018-03-14T04:42:46.697Z,6.19
2018-03-14T04:43:46.692Z,6.22
2018-03-14T04:44:46.701Z,6.22
2018-03-14T04:45:46.700Z,6.22
2018-03-14T04:46:46.934Z,6.25
2018-03-14T04:47:46.720Z,6.23
2018-03-14T04:48:46.720Z,6.28
2018-03-14T04:49:46.729Z,6.26
2018-03-14T04:50:46.738Z,6.29
2018-03-14T04:51:46.755Z,6.28
2018-03-14T04:52:46.736Z,6.26
2018-03-14T04:53:46.760Z,6.26
2018-03-14T04:54:46.745Z,6.29
2018-03-14T04:55:46.732Z,6.28
2018-03-14T04:56:46.743Z,6.29
2018-03-14T04:57:46.744Z,6.28
2018-03-14T04:58:46.759Z,6.26
2018-03-14T04:59:46.749Z,6.26
2018-03-14T05:00:46.755Z,6.26
2018-03-14T05:01:46.762Z,6.22
2018-03-14T05:02:46.780Z,6.18
2018-03-14T05:03:46.781Z,6.16
2018-03-14T05:04:46.756Z,6.19
2018-03-14T05:05:46.749Z,6.22
2018-03-14T05:06:46.763Z,6.2
2018-03-14T05:07:46.777Z,6.2
2018-03-14T05:08:46.756Z,6.2
2018-03-14T05:09:46.761Z,6.22
2018-03-14T05:10:46.754Z,6.22
2018-03-14T05:11:46.764Z,6.19
2018-03-14T05:12:46.772Z,6.19
2018-03-14T05:13:46.758Z,6.2
2018-03-14T05:14:46.764Z,6.2
2018-03-14T05:15:46.788Z,6.23
2018-03-14T05:16:46.780Z,6.2
2018-03-14T05:17:46.777Z,6.22
2018-03-14T05:18:46.790Z,6.22
2018-03-14T05:19:46.826Z,6.25
2018-03-14T05:20:46.811Z,6.2
2018-03-14T05:21:46.812Z,6.19
2018-03-14T05:22:46.804Z,6.19
2018-03-14T05:23:46.804Z,6.19
2018-03-14T05:24:46.802Z,6.18
2018-03-14T05:25:46.806Z,6.19
2018-03-14T05:26:46.909Z,6.19
2018-03-14T05:27:46.805Z,6.19
2018-03-14T05:28:46.833Z,6.09
2018-03-14T05:29:46.819Z,6.09
2018-03-14T05:30:46.838Z,6.11
2018-03-14T05:31:46.843Z,6.15
2018-03-14T05:32:46.819Z,6.12
2018-03-14T05:33:46.826Z,6.13
2018-03-14T05:34:46.989Z,6.18
2018-03-14T05:35:46.833Z,6.16
2018-03-14T05:36:46.840Z,6.15
2018-03-14T05:37:46.851Z,6.13
2018-03-14T05:38:46.860Z,6.16
2018-03-14T05:39:46.875Z,6.16
2018-03-14T05:40:46.845Z,6.18
2018-03-14T05:41:46.852Z,6.16
2018-03-14T05:42:46.859Z,6.19
2018-03-14T05:43:46.859Z,6.19
2018-03-14T05:44:46.875Z,6.19
2018-03-14T05:45:46.880Z,6.16
2018-03-14T05:46:46.886Z,6.18
2018-03-14T05:47:47.002Z,6.22
2018-03-14T05:48:46.894Z,6.2
2018-03-14T05:49:46.896Z,6.2
2018-03-14T05:50:46.903Z,6.22
2018-03-14T05:51:46.907Z,6.22
2018-03-14T05:52:46.917Z,6.22
2018-03-14T05:53:47.028Z,6.22
2018-03-14T05:54:46.917Z,6.26
2018-03-14T05:55:46.917Z,6.25
2018-03-14T05:56:46.929Z,6.28
2018-03-14T05:57:46.922Z,6.29
2018-03-14T05:58:46.919Z,6.29
2018-03-14T05:59:46.936Z,6.32
2018-03-14T06:00:46.939Z,6.29
2018-03-14T06:01:46.931Z,6.3
2018-03-14T06:02:46.945Z,6.29
2018-03-14T06:03:46.940Z,6.29
2018-03-14T06:04:46.974Z,6.3
2018-03-14T06:05:46.952Z,6.28
2018-03-14T06:06:46.937Z,6.29
2018-03-14T06:07:46.967Z,6.26
2018-03-14T06:08:46.956Z,6.22
2018-03-14T06:09:46.967Z,6.22
2018-03-14T06:10:46.966Z,6.22
2018-03-14T06:11:46.977Z,6.22
2018-03-14T06:12:46.969Z,6.25
2018-03-14T06:13:46.976Z,6.2
2018-03-14T06:14:47.048Z,6.22
2018-03-14T06:15:46.985Z,6.22
2018-03-14T06:16:47.017Z,6.22
2018-03-14T06:17:46.998Z,6.23
2018-03-14T06:18:47.017Z,6.23
2018-03-14T06:19:47.031Z,6.25
2018-03-14T06:20:47.001Z,6.25
2018-03-14T06:21:47.008Z,6.26
2018-03-14T06:22:47.006Z,6.25
2018-03-14T06:23:47.018Z,6.3
2018-03-14T06:24:47.052Z,6.29
2018-03-14T06:25:47.013Z,6.3
2018-03-14T06:26:47.042Z,6.3
2018-03-14T06:27:47.052Z,6.32
2018-03-14T06:28:47.051Z,6.32
2018-03-14T06:29:47.153Z,6.25
2018-03-14T06:30:47.080Z,6.28
2018-03-14T06:31:47.043Z,6.29
2018-03-14T06:32:47.050Z,6.28
2018-03-14T06:33:47.066Z,6.26
2018-03-14T06:34:47.068Z,6.29
2018-03-14T06:35:47.103Z,6.29
2018-03-14T06:36:47.072Z,6.29
2018-03-14T06:37:47.088Z,6.29
2018-03-14T06:38:47.101Z,6.28
2018-03-14T06:39:47.093Z,6.29
2018-03-14T06:40:47.107Z,6.28
2018-03-14T06:41:47.079Z,6.28
2018-03-14T06:42:47.099Z,6.32
2018-03-14T06:43:47.090Z,6.3
2018-03-14T06:44:47.088Z,6.29
2018-03-14T06:45:47.118Z,6.3
2018-03-14T06:46:47.117Z,6.29
2018-03-14T06:47:47.108Z,6.3
2018-03-14T06:48:47.142Z,6.3
2018-03-14T06:49:47.110Z,6.3
2018-03-14T06:50:47.116Z,6.33
2018-03-14T06:51:47.115Z,6.33
2018-03-14T06:52:47.128Z,6.35
2018-03-14T06:53:47.158Z,6.33
2018-03-14T06:54:47.142Z,6.35
2018-03-14T06:55:47.131Z,6.39
2018-03-14T06:56:47.145Z,6.4
2018-03-14T06:57:47.162Z,6.4
2018-03-14T06:58:47.151Z,6.41
2018-03-14T06:59:47.142Z,6.44
2018-03-14T07:00:47.144Z,6.43
2018-03-14T07:01:47.144Z,6.41
2018-03-14T07:02:47.151Z,6.39
2018-03-14T07:03:47.167Z,6.4
2018-03-14T07:04:47.164Z,6.37
2018-03-14T07:05:47.261Z,6.33
2018-03-14T07:06:47.180Z,6.36
2018-03-14T07:07:47.174Z,6.37
2018-03-14T07:08:47.180Z,6.39
2018-03-14T07:09:47.174Z,6.4
2018-03-14T07:10:47.185Z,6.41
2018-03-14T07:11:47.227Z,6.41
2018-03-14T07:12:47.183Z,6.44
2018-03-14T07:13:47.209Z,6.43
2018-03-14T07:14:47.207Z,6.48
2018-03-14T07:15:47.198Z,6.46
2018-03-14T07:16:47.224Z,6.48
2018-03-14T07:17:47.203Z,6.5
2018-03-14T07:18:47.208Z,6.48
2018-03-14T07:19:47.225Z,6.54
2018-03-14T07:20:47.206Z,6.53
2018-03-14T07:21:47.206Z,6.53
2018-03-14T07:22:47.236Z,6.51
2018-03-14T07:23:47.222Z,6.51
2018-03-14T07:24:47.250Z,6.54
2018-03-14T07:25:47.233Z,6.56
2018-03-14T07:26:47.239Z,6.57
2018-03-14T07:27:47.262Z,6.56
2018-03-14T07:28:47.240Z,6.6
2018-03-14T07:29:47.248Z,6.58
2018-03-14T07:30:47.254Z,6.6
2018-03-14T07:31:47.286Z,6.61
2018-03-14T07:32:47.289Z,6.61
2018-03-14T07:33:47.285Z,6.64
2018-03-14T07:34:47.271Z,6.65
2018-03-14T07:35:47.276Z,6.68
2018-03-14T07:36:47.278Z,6.63
2018-03-14T07:37:47.339Z,6.67
2018-03-14T07:38:47.287Z,6.65
2018-03-14T07:39:47.284Z,6.68
2018-03-14T07:40:47.284Z,6.71
2018-03-14T07:41:47.283Z,6.74
2018-03-14T07:42:47.306Z,6.73
2018-03-14T07:43:47.289Z,6.74
2018-03-14T07:44:47.286Z,6.77
2018-03-14T07:45:47.291Z,6.78
2018-03-14T07:46:47.287Z,6.78
2018-03-14T07:47:47.337Z,6.8
2018-03-14T07:48:47.331Z,6.81
2018-03-14T07:49:47.310Z,6.81
2018-03-14T07:50:47.309Z,6.81
2018-03-14T07:51:47.312Z,6.84
2018-03-14T07:52:47.325Z,6.85
2018-03-14T07:53:47.330Z,6.84
2018-03-14T07:54:47.321Z,6.85
2018-03-14T07:55:47.325Z,6.84
2018-03-14T07:56:47.339Z,6.83
2018-03-14T07:57:47.342Z,6.84
2018-03-14T07:58:47.360Z,6.84
2018-03-14T07:59:47.342Z,6.84
2018-03-14T08:00:47.347Z,6.87
2018-03-14T08:01:47.347Z,6.85
2018-03-14T08:02:47.366Z,6.85
2018-03-14T08:03:47.374Z,6.9
2018-03-14T08:04:47.358Z,6.9
2018-03-14T08:05:47.427Z,6.92
2018-03-14T08:06:47.458Z,6.98
2018-03-14T08:07:47.358Z,6.98
2018-03-14T08:08:47.409Z,6.94
2018-03-14T08:09:47.367Z,6.95
2018-03-14T08:10:47.378Z,6.95
2018-03-14T08:11:47.372Z,6.99
2018-03-14T08:12:47.372Z,7.03
2018-03-14T08:13:48.148Z,7.05
2018-03-14T08:14:47.390Z,7.12
2018-03-14T08:15:47.397Z,7.12
2018-03-14T08:16:47.400Z,7.15
2018-03-14T08:17:47.393Z,7.18
2018-03-14T08:18:47.407Z,7.16
2018-03-14T08:19:47.402Z,7.18
2018-03-14T08:20:47.401Z,7.24
2018-03-14T08:21:47.474Z,7.23
2018-03-14T08:22:47.412Z,7.26
2018-03-14T08:23:47.421Z,7.26
2018-03-14T08:24:47.413Z,7.29
2018-03-14T08:25:47.413Z,7.26
2018-03-14T08:26:47.439Z,7.26
2018-03-14T08:27:47.572Z,7.26
2018-03-14T08:28:47.451Z,7.3
2018-03-14T08:29:47.423Z,7.33
2018-03-14T08:30:47.437Z,7.34
2018-03-14T08:31:47.421Z,7.4
2018-03-14T08:32:47.440Z,7.41
2018-03-14T08:33:47.447Z,7.4
2018-03-14T08:34:47.437Z,7.37
2018-03-14T08:35:47.431Z,7.39
2018-03-14T08:36:47.439Z,7.44
2018-03-14T08:37:47.454Z,7.44
2018-03-14T08:38:47.475Z,7.44
2018-03-14T08:39:47.459Z,7.51
2018-03-14T08:40:47.451Z,7.54
2018-03-14T08:41:47.461Z,7.57
2018-03-14T08:42:47.462Z,7.62
2018-03-14T08:43:47.481Z,7.64
2018-03-14T08:44:47.446Z,7.68
2018-03-14T08:45:47.469Z,7.71
2018-03-14T08:46:47.576Z,7.71
2018-03-14T08:47:47.477Z,7.72
2018-03-14T08:48:47.477Z,7.75
2018-03-14T08:49:47.499Z,7.81
2018-03-14T08:50:47.492Z,7.81
2018-03-14T08:51:47.495Z,7.81
2018-03-14T08:52:47.484Z,7.81
2018-03-14T08:53:47.487Z,7.82
2018-03-14T08:54:47.507Z,7.86
2018-03-14T08:55:47.693Z,7.89
2018-03-14T08:56:47.516Z,7.91
2018-03-14T08:57:47.507Z,7.93
2018-03-14T08:58:47.520Z,7.99
2018-03-14T08:59:47.511Z,8.01
2018-03-14T09:00:47.503Z,8.03
2018-03-14T09:01:47.522Z,8.03
2018-03-14T09:02:47.524Z,8.01
2018-03-14T09:03:47.546Z,8.03
2018-03-14T09:04:47.546Z,7.99
2018-03-14T09:05:47.531Z,7.99
2018-03-14T09:06:47.528Z,7.95
2018-03-14T09:07:47.554Z,7.89
2018-03-14T09:08:47.529Z,7.88
2018-03-14T09:09:47.555Z,7.86
2018-03-14T09:10:47.554Z,7.91
2018-03-14T09:11:47.570Z,7.93
2018-03-14T09:12:47.547Z,7.92
2018-03-14T09:13:47.571Z,7.98
2018-03-14T09:14:47.549Z,7.96
2018-03-14T09:15:47.548Z,7.96
2018-03-14T09:16:47.552Z,7.98
2018-03-14T09:17:47.554Z,8.02
2018-03-14T09:18:47.565Z,8.08
2018-03-14T09:19:47.582Z,8.17
2018-03-14T09:20:47.558Z,8.14
2018-03-14T09:21:47.559Z,8.17
2018-03-14T09:22:47.573Z,8.21
2018-03-14T09:23:47.567Z,8.27
2018-03-14T09:24:47.599Z,8.36
2018-03-14T09:25:47.587Z,8.4
2018-03-14T09:26:47.591Z,8.48
2018-03-14T09:27:47.591Z,8.57
2018-03-14T09:28:47.608Z,8.52
2018-03-14T09:29:47.625Z,8.48
2018-03-14T09:30:47.605Z,8.45
2018-03-14T09:31:47.852Z,8.47
2018-03-14T09:32:47.634Z,8.44
2018-03-14T09:33:47.623Z,8.47
2018-03-14T09:34:47.628Z,8.45
2018-03-14T09:35:47.624Z,8.45
2018-03-14T09:36:47.641Z,8.45
2018-03-14T09:37:47.686Z,8.38
2018-03-14T09:38:47.642Z,8.34
2018-03-14T09:39:47.873Z,8.36
2018-03-14T09:40:47.666Z,8.33
2018-03-14T09:41:47.671Z,8.36
2018-03-14T09:42:47.657Z,8.31
2018-03-14T09:43:47.659Z,8.29
2018-03-14T09:44:47.688Z,8.27
2018-03-14T09:45:47.663Z,8.3
2018-03-14T09:46:47.669Z,8.3
2018-03-14T09:47:47.667Z,8.33
2018-03-14T09:48:47.690Z,8.38
2018-03-14T09:49:47.702Z,8.44
2018-03-14T09:50:47.684Z,8.47
2018-03-14T09:51:47.717Z,8.52
2018-03-14T09:52:47.692Z,8.62
2018-03-14T09:53:47.700Z,8.76
2018-03-14T09:54:47.719Z,8.83
2018-03-14T09:55:47.704Z,8.89
2018-03-14T09:56:47.720Z,8.82
2018-03-14T09:57:47.817Z,8.8
2018-03-14T09:58:47.726Z,8.78
2018-03-14T09:59:47.720Z,8.82
2018-03-14T10:00:47.953Z,8.82
2018-03-14T10:01:47.717Z,8.78
2018-03-14T10:02:47.725Z,8.79
2018-03-14T10:03:47.723Z,8.75
2018-03-14T10:04:47.735Z,8.75
2018-03-14T10:05:47.742Z,8.75
2018-03-14T10:06:47.738Z,8.78
2018-03-14T10:07:47.757Z,8.8
2018-03-14T10:08:47.752Z,8.82
2018-03-14T10:09:47.748Z,8.83
2018-03-14T10:10:47.812Z,8.83
2018-03-14T10:11:47.748Z,8.91
2018-03-14T10:12:47.822Z,9.02
2018-03-14T10:13:47.754Z,9.09
2018-03-14T10:14:47.782Z,9.16
2018-03-14T10:15:47.764Z,9.21
2018-03-14T10:16:47.940Z,9.23
2018-03-14T10:17:47.759Z,9.26
2018-03-14T10:18:47.840Z,9.26
2018-03-14T10:19:47.766Z,9.33
2018-03-14T10:20:47.764Z,9.17
2018-03-14T10:21:47.960Z,9.11
2018-03-14T10:22:47.774Z,9.09
2018-03-14T10:23:48.827Z,9.04
2018-03-14T10:24:47.774Z,8.98
2018-03-14T10:25:48.365Z,8.99
2018-03-14T10:26:47.878Z,8.99
2018-03-14T10:27:47.850Z,9.02
2018-03-14T10:28:48.423Z,9.06
2018-03-14T10:29:47.847Z,9.11
2018-03-14T10:30:47.855Z,9.14
2018-03-14T10:31:47.858Z,9.13
2018-03-14T10:32:47.862Z,9.13
2018-03-14T10:33:47.851Z,9.14
2018-03-14T10:34:47.840Z,9.19
2018-03-14T10:35:47.876Z,9.3
2018-03-14T10:36:47.986Z,9.29
2018-03-14T10:37:47.900Z,9.29
2018-03-14T10:38:47.869Z,9.31
2018-03-14T10:39:47.855Z,9.37
2018-03-14T10:40:47.922Z,9.3
2018-03-14T10:41:47.890Z,9.24
2018-03-14T10:42:47.886Z,9.26
2018-03-14T10:43:47.901Z,9.21
2018-03-14T10:44:48.495Z,9.27
2018-03-14T10:45:47.885Z,9.26
2018-03-14T10:46:47.898Z,9.3
2018-03-14T10:47:47.914Z,9.33
2018-03-14T10:48:47.940Z,9.31
2018-03-14T10:49:47.919Z,9.41
2018-03-14T10:50:47.907Z,9.47
2018-03-14T10:51:47.913Z,9.55
2018-03-14T10:52:47.922Z,9.63
2018-03-14T10:53:47.909Z,9.73
2018-03-14T10:54:47.920Z,9.81
2018-03-14T10:55:47.907Z,9.89
2018-03-14T10:56:47.889Z,9.93
2018-03-14T10:57:47.910Z,9.9
2018-03-14T10:58:49.303Z,10.02
2018-03-14T10:59:47.940Z,10.09
2018-03-14T11:00:48.002Z,10.16
2018-03-14T11:01:47.926Z,10.17
2018-03-14T11:02:48.136Z,10.2
2018-03-14T11:03:48.061Z,10.19
2018-03-14T11:04:48.163Z,10.23
2018-03-14T11:05:47.940Z,10.32
2018-03-14T11:06:47.942Z,10.42
2018-03-14T11:07:48.207Z,10.49
2018-03-14T11:08:47.922Z,10.39
2018-03-14T11:09:47.951Z,10.49
2018-03-14T11:10:47.928Z,10.45
2018-03-14T11:11:47.929Z,10.49
2018-03-14T11:12:47.916Z,10.34
2018-03-14T11:13:47.918Z,10.39
2018-03-14T11:14:47.932Z,10.41
2018-03-14T11:15:47.924Z,10.48
2018-03-14T11:16:47.948Z,10.47
2018-03-14T11:17:47.948Z,10.42
2018-03-14T11:18:47.975Z,10.45
2018-03-14T11:19:47.961Z,10.42
2018-03-14T11:20:47.957Z,10.3
2018-03-14T11:21:47.955Z,10.25
2018-03-14T11:22:47.970Z,10.11
2018-03-14T11:23:47.969Z,10.14
2018-03-14T11:24:47.960Z,10.16
2018-03-14T11:25:48.000Z,10.11
2018-03-14T11:26:47.994Z,10.09
2018-03-14T11:27:48.014Z,10.11
2018-03-14T11:28:47.988Z,10.14
2018-03-14T11:29:47.992Z,10.16
2018-03-14T11:30:48.004Z,10.23
2018-03-14T11:31:48.005Z,10.24
2018-03-14T11:32:48.004Z,10.23
2018-03-14T11:33:48.011Z,10.23
2018-03-14T11:34:48.012Z,10.14
2018-03-14T11:35:48.018Z,10.19
2018-03-14T11:36:48.017Z,10.17
2018-03-14T11:37:48.020Z,10.16
2018-03-14T11:38:48.015Z,10.11
2018-03-14T11:39:48.084Z,10.19
2018-03-14T11:40:48.088Z,10.25
2018-03-14T11:41:48.027Z,10.13
2018-03-14T11:42:48.026Z,10.21
2018-03-14T11:43:48.038Z,10.34
2018-03-14T11:44:48.101Z,10.39
2018-03-14T11:45:48.088Z,10.42
2018-03-14T11:46:48.094Z,10.39
2018-03-14T11:47:48.089Z,10.44
2018-03-14T11:48:48.092Z,10.48
2018-03-14T11:49:48.091Z,10.44
2018-03-14T11:50:48.101Z,10.35
2018-03-14T11:51:48.099Z,10.41
2018-03-14T11:52:48.097Z,10.47
2018-03-14T11:53:48.094Z,10.59
2018-03-14T11:54:48.689Z,10.76
2018-03-14T11:55:48.111Z,10.92
2018-03-14T11:56:48.114Z,11.08
2018-03-14T11:57:48.129Z,11.27
2018-03-14T11:58:48.113Z,11.37
2018-03-14T11:59:48.114Z,11.27
2018-03-14T12:00:48.116Z,11.11
2018-03-14T12:01:49.096Z,11.11
2018-03-14T12:02:48.268Z,11.1
2018-03-14T12:03:48.148Z,10.99
2018-03-14T12:04:48.143Z,11.07
2018-03-14T12:05:48.152Z,11.14
2018-03-14T12:06:48.146Z,11.22
2018-03-14T12:07:48.160Z,11.25
2018-03-14T12:08:48.157Z,11.32
2018-03-14T12:09:48.159Z,11.32
2018-03-14T12:10:48.150Z,11.28
2018-03-14T12:11:52.500Z,11.14
2018-03-14T12:12:48.164Z,11.15
2018-03-14T12:13:48.159Z,11.07
2018-03-14T12:14:48.166Z,11.01
2018-03-14T12:15:48.173Z,11.04
2018-03-14T12:16:48.163Z,10.9
2018-03-14T12:17:48.167Z,10.9
2018-03-14T12:18:49.410Z,10.8
2018-03-14T12:19:48.568Z,10.69
2018-03-14T12:20:48.170Z,10.68
2018-03-14T12:21:48.169Z,10.64
2018-03-14T12:22:48.169Z,10.76
2018-03-14T12:23:49.386Z,10.86
2018-03-14T12:24:48.188Z,10.99
2018-03-14T12:25:48.172Z,11.12
2018-03-14T12:26:48.183Z,11.12
2018-03-14T12:27:49.874Z,11.22
2018-03-14T12:28:48.177Z,11.1
2018-03-14T12:29:48.180Z,11.2
2018-03-14T12:30:48.326Z,11.15
2018-03-14T12:31:49.439Z,10.97
2018-03-14T12:32:48.203Z,11
2018-03-14T12:33:48.218Z,11.15
2018-03-14T12:34:48.922Z,11.14
2018-03-14T12:35:48.208Z,11.03
2018-03-14T12:36:48.198Z,11.07
2018-03-14T12:37:48.210Z,10.92
2018-03-14T12:38:48.216Z,10.94
2018-03-14T12:39:50.518Z,10.97
2018-03-14T12:40:50.169Z,10.96
2018-03-14T12:41:48.735Z,10.99
2018-03-14T12:42:50.108Z,10.96
2018-03-14T12:43:50.135Z,11.01
2018-03-14T12:44:49.604Z,11.07
2018-03-14T12:45:50.046Z,11.06
2018-03-14T12:46:48.902Z,11
2018-03-14T12:47:48.610Z,10.94
2018-03-14T12:48:49.850Z,10.87
2018-03-14T12:49:51.549Z,10.78
2018-03-14T12:50:51.538Z,10.82
2018-03-14T12:51:49.400Z,10.78
2018-03-14T12:52:48.755Z,10.69
2018-03-14T12:53:52.496Z,10.75
2018-03-14T12:54:49.381Z,10.73
2018-03-14T12:55:48.871Z,10.64
2018-03-14T12:56:48.237Z,10.64
2018-03-14T12:57:48.279Z,10.64
2018-03-14T12:58:48.293Z,10.55
2018-03-14T12:59:48.271Z,10.56
2018-03-14T13:00:48.244Z,10.55
2018-03-14T13:01:48.275Z,10.59
2018-03-14T13:02:48.242Z,10.68
2018-03-14T13:03:48.244Z,10.73
2018-03-14T13:04:48.272Z,10.79
2018-03-14T13:05:48.260Z,10.82
2018-03-14T13:06:48.262Z,10.8
2018-03-14T13:07:48.287Z,10.84
2018-03-14T13:08:48.262Z,10.86
2018-03-14T13:09:48.271Z,10.93
2018-03-14T13:10:48.291Z,10.94
2018-03-14T13:11:48.417Z,10.94
2018-03-14T13:12:48.305Z,11.1
2018-03-14T13:13:48.293Z,11.21
2018-03-14T13:14:48.293Z,11.28
2018-03-14T13:15:50.873Z,11.35
2018-03-14T13:16:48.296Z,11.47
2018-03-14T13:17:48.326Z,11.55